createdAt,value
2022-11-24T00:04:42.785Z,3.70
2022-11-24T00:15:04.658Z,3.27
2022-11-24T00:25:26.229Z,4.07
2022-11-24T00:35:55.214Z,4.03
2022-11-24T00:46:17.415Z,4.88
2022-11-24T00:56:39.108Z,4.57
2022-11-24T01:07:00.709Z,5.00
2022-11-24T01:17:22.451Z,4.97
2022-11-24T01:27:44.052Z,5.70
2022-11-24T01:38:05.999Z,6.00
2022-11-24T01:58:53.612Z,5.00
2022-11-24T02:09:27.824Z,5.65
2022-11-24T02:19:54.481Z,5.90
2022-11-24T02:30:16.160Z,6.20
2022-11-24T02:40:37.860Z,6.13
2022-11-24T02:50:59.410Z,6.30
2022-11-24T03:01:21.011Z,6.10
2022-11-24T03:11:42.641Z,5.67
2022-11-24T03:22:04.449Z,6.30
2022-11-24T03:32:26.051Z,5.80
2022-11-24T03:42:47.654Z,6.73
2022-11-24T03:53:09.461Z,5.80
2022-11-24T04:03:31.055Z,5.33
2022-11-24T04:13:52.634Z,5.67
2022-11-24T04:24:14.774Z,5.67
2022-11-24T04:34:37.768Z,5.93
2022-11-24T04:44:59.298Z,5.90
2022-11-24T04:55:20.851Z,4.90
2022-11-24T05:05:42.359Z,5.03
2022-11-24T05:16:04.198Z,5.40
2022-11-24T05:26:26.674Z,3.90
2022-11-24T05:36:54.260Z,3.45
2022-11-24T05:47:15.783Z,4.00
2022-11-24T05:57:37.565Z,3.03
2022-11-24T06:08:00.614Z,4.13
2022-11-24T06:18:22.161Z,3.17
2022-11-24T06:28:44.091Z,3.23
2022-11-24T06:39:06.430Z,2.80
2022-11-24T06:49:27.871Z,3.45
2022-11-24T06:59:49.382Z,3.97
2022-11-24T07:10:10.834Z,3.87
2022-11-24T07:20:32.544Z,3.33
2022-11-24T07:30:53.977Z,3.47
2022-11-24T07:41:17.284Z,3.20
2022-11-24T07:51:38.818Z,3.78
2022-11-24T08:02:00.367Z,3.90
2022-11-24T08:12:21.974Z,3.20
2022-11-24T08:22:43.622Z,3.37
2022-11-24T08:33:05.081Z,3.47
2022-11-24T08:43:26.572Z,3.50
2022-11-24T08:53:48.369Z,3.27
2022-11-24T09:04:09.944Z,3.78
2022-11-24T09:14:31.662Z,3.57
2022-11-24T09:24:53.256Z,3.58
2022-11-24T09:35:14.809Z,3.93
2022-11-24T09:56:34.570Z,3.60
2022-11-24T10:07:05.384Z,3.58
2022-11-24T10:17:38.961Z,3.42
2022-11-24T10:28:04.753Z,3.53
2022-11-24T10:38:43.756Z,3.80
2022-11-24T10:49:05.579Z,3.20
2022-11-24T10:59:32.280Z,3.38
2022-11-24T11:10:23.558Z,3.30
2022-11-24T11:20:56.514Z,3.07
2022-11-24T11:31:22.024Z,3.13
2022-11-24T11:41:48.112Z,3.13
2022-11-24T11:52:26.667Z,2.95
2022-11-24T12:03:20.620Z,2.95
2022-11-24T12:13:50.276Z,2.92
2022-11-24T12:24:21.912Z,2.63
2022-11-24T12:35:01.104Z,2.00
2022-11-24T12:45:33.321Z,2.67
2022-11-24T12:56:00.204Z,2.35
2022-11-24T13:06:34.782Z,2.83
2022-11-24T13:27:45.601Z,2.40
2022-11-24T13:38:51.599Z,2.80
2022-11-24T13:49:20.557Z,2.83
2022-11-24T13:59:42.067Z,2.53
2022-11-24T14:10:03.949Z,2.53
2022-11-24T14:20:28.228Z,3.15
2022-11-24T14:30:49.711Z,3.00
2022-11-24T14:41:26.038Z,2.93
2022-11-24T14:51:55.544Z,3.60
2022-11-24T15:03:16.021Z,3.42
2022-11-24T15:13:38.698Z,2.90
2022-11-24T15:24:16.902Z,4.10
2022-11-24T15:34:38.362Z,4.38
2022-11-24T15:45:00.228Z,5.03
2022-11-24T15:55:22.498Z,5.97
2022-11-24T16:05:43.956Z,5.85
2022-11-24T16:16:06.315Z,6.70
2022-11-24T16:26:27.922Z,7.57
2022-11-24T16:36:49.653Z,7.20
2022-11-24T16:47:12.899Z,7.70
2022-11-24T16:57:35.640Z,7.70
2022-11-24T17:07:58.186Z,7.28
2022-11-24T17:18:26.846Z,7.50
2022-11-24T17:28:48.328Z,7.18
2022-11-24T17:39:11.032Z,8.17
2022-11-24T17:49:33.679Z,8.63
2022-11-24T17:59:55.159Z,9.73
2022-11-24T18:10:16.721Z,10.10
2022-11-24T18:20:38.189Z,10.23
2022-11-24T18:31:08.988Z,10.13
2022-11-24T18:41:30.514Z,9.90
2022-11-24T18:51:52.872Z,10.33
2022-11-24T19:02:14.396Z,10.32
2022-11-24T19:12:35.952Z,10.17
2022-11-24T19:22:57.390Z,9.73
2022-11-24T19:33:18.927Z,8.33
2022-11-24T19:43:41.148Z,7.33
2022-11-24T19:54:03.838Z,7.97
2022-11-24T20:04:25.419Z,7.75
2022-11-24T20:14:46.879Z,6.97
2022-11-24T20:25:10.789Z,7.60
2022-11-24T20:35:32.251Z,8.38
2022-11-24T20:45:53.769Z,8.17
2022-11-24T20:56:23.860Z,8.40
2022-11-24T21:06:45.842Z,8.02
2022-11-24T21:17:07.316Z,8.40
2022-11-24T21:27:28.795Z,8.97
2022-11-24T21:37:50.233Z,8.10
2022-11-24T21:48:11.681Z,8.93
2022-11-24T21:58:34.228Z,9.30
2022-11-24T22:08:55.747Z,10.02
2022-11-24T22:19:17.565Z,10.40
2022-11-24T22:29:39.006Z,10.82
2022-11-24T22:40:00.468Z,9.93
2022-11-24T22:50:21.954Z,9.53
2022-11-24T23:00:43.403Z,9.87
2022-11-24T23:11:11.435Z,10.60
2022-11-24T23:21:35.104Z,10.07
2022-11-24T23:31:56.678Z,10.15
2022-11-24T23:42:18.491Z,8.97
2022-11-24T23:52:40.063Z,8.80
